createdAt,value
2023-04-05T00:00:38.160Z,4.10
2023-04-05T00:03:05.950Z,4.10
2023-04-05T00:05:34.391Z,4.10
2023-04-05T00:08:03.552Z,4.10
2023-04-05T00:10:31.799Z,4.10
2023-04-05T00:12:59.166Z,4.10
2023-04-05T00:15:28.317Z,4.00
2023-04-05T00:17:55.985Z,3.80
2023-04-05T00:20:23.027Z,4.00
2023-04-05T00:22:52.944Z,4.00
2023-04-05T00:25:21.724Z,4.00
2023-04-05T00:27:49.385Z,3.90
2023-04-05T00:30:20.902Z,3.90
2023-04-05T00:32:49.976Z,3.90
2023-04-05T00:35:17.651Z,3.80
2023-04-05T00:37:44.773Z,3.80
2023-04-05T00:40:12.239Z,3.80
2023-04-05T00:42:39.284Z,3.80
2023-04-05T00:45:06.992Z,3.90
2023-04-05T00:47:34.430Z,3.70
2023-04-05T00:50:01.544Z,3.70
2023-04-05T00:52:30.458Z,3.60
2023-04-05T00:54:57.652Z,3.60
2023-04-05T00:57:26.393Z,3.60
2023-04-05T00:59:53.491Z,3.60
2023-04-05T01:02:31.669Z,3.60
2023-04-05T01:05:05.198Z,3.60
2023-04-05T01:08:08.159Z,3.50
2023-04-05T01:10:39.935Z,3.50
2023-04-05T01:13:07.204Z,3.50
2023-04-05T01:15:34.251Z,3.50
2023-04-05T01:18:04.105Z,3.50
2023-04-05T01:20:36.687Z,3.40
2023-04-05T01:23:41.920Z,3.40
2023-04-05T01:26:40.495Z,3.40
2023-04-05T01:29:48.971Z,3.40
2023-04-05T01:33:04.348Z,3.30
2023-04-05T01:35:52.340Z,3.30
2023-04-05T01:38:28.057Z,3.40
2023-04-05T01:40:55.381Z,3.30
2023-04-05T01:43:22.425Z,3.30
2023-04-05T01:45:49.524Z,3.20
2023-04-05T01:48:16.532Z,3.20
2023-04-05T01:50:43.724Z,3.20
2023-04-05T01:53:11.050Z,3.20
2023-04-05T01:55:38.095Z,3.20
2023-04-05T01:58:05.041Z,3.20
2023-04-05T02:00:32.522Z,3.20
2023-04-05T02:02:59.639Z,3.20
2023-04-05T02:05:26.645Z,3.20
2023-04-05T02:07:53.833Z,3.30
2023-04-05T02:10:22.300Z,3.30
2023-04-05T02:12:49.208Z,3.40
2023-04-05T02:15:16.670Z,3.40
2023-04-05T02:17:45.884Z,3.40
2023-04-05T02:20:14.546Z,3.50
2023-04-05T02:22:45.171Z,3.60
2023-04-05T02:25:13.233Z,3.60
2023-04-05T02:27:41.133Z,3.70
2023-04-05T02:30:09.252Z,3.80
2023-04-05T02:32:36.349Z,3.80
2023-04-05T02:35:03.897Z,3.90
2023-04-05T02:37:31.169Z,4.00
2023-04-05T02:39:58.225Z,4.10
2023-04-05T02:42:25.204Z,4.10
2023-04-05T02:44:53.233Z,4.20
2023-04-05T02:47:21.930Z,4.30
2023-04-05T02:49:57.264Z,4.40
2023-04-05T02:52:26.544Z,4.50
2023-04-05T02:54:53.601Z,4.50
2023-04-05T02:57:25.792Z,4.60
2023-04-05T03:00:00.663Z,4.70
2023-04-05T03:02:29.932Z,4.70
2023-04-05T03:04:57.159Z,4.80
2023-04-05T03:07:25.467Z,4.90
2023-04-05T03:09:53.899Z,5.00
2023-04-05T03:12:21.377Z,5.00
2023-04-05T03:14:49.241Z,5.10
2023-04-05T03:17:20.847Z,5.20
2023-04-05T03:19:57.417Z,5.60
2023-04-05T03:22:27.346Z,5.30
2023-04-05T03:24:57.244Z,5.40
2023-04-05T03:27:24.601Z,5.40
2023-04-05T03:30:05.479Z,5.50
2023-04-05T03:32:36.471Z,5.50
2023-04-05T03:35:19.063Z,5.60
2023-04-05T03:37:47.160Z,5.60
2023-04-05T03:40:14.635Z,5.60
2023-04-05T03:42:41.629Z,5.70
2023-04-05T03:45:09.262Z,5.70
2023-04-05T03:47:36.379Z,5.70
2023-04-05T03:50:07.913Z,5.80
2023-04-05T03:52:35.022Z,5.80
2023-04-05T03:55:02.547Z,5.80
2023-04-05T03:57:32.611Z,5.90
2023-04-05T04:00:17.569Z,5.90
2023-04-05T04:02:47.187Z,5.90
2023-04-05T04:05:20.302Z,6.00
2023-04-05T04:07:51.758Z,6.00
2023-04-05T04:10:19.337Z,6.00
2023-04-05T04:12:50.613Z,6.00
2023-04-05T04:15:19.388Z,6.10
2023-04-05T04:18:09.019Z,6.10
2023-04-05T04:20:54.559Z,6.10
2023-04-05T04:23:47.092Z,6.20
2023-04-05T04:26:29.586Z,6.20
2023-04-05T04:29:16.096Z,6.20
2023-04-05T04:32:01.589Z,6.20
2023-04-05T04:34:44.606Z,6.30
2023-04-05T04:37:30.756Z,6.30
2023-04-05T04:40:46.888Z,6.30
2023-04-05T04:43:33.805Z,6.40
2023-04-05T04:46:30.772Z,6.40
2023-04-05T04:49:07.238Z,6.40
2023-04-05T04:51:35.440Z,6.50
2023-04-05T04:54:02.898Z,6.50
2023-04-05T04:56:30.208Z,6.50
2023-04-05T04:58:59.027Z,6.60
2023-04-05T05:01:26.584Z,6.60
2023-04-05T05:03:53.716Z,6.60
2023-04-05T05:06:32.711Z,6.60
2023-04-05T05:08:59.652Z,6.70
2023-04-05T05:11:28.930Z,6.70
2023-04-05T05:13:56.102Z,6.80
2023-04-05T05:16:24.843Z,6.80
2023-04-05T05:18:52.309Z,6.80
2023-04-05T05:21:20.009Z,6.90
2023-04-05T05:23:53.167Z,6.90
2023-04-05T05:26:21.199Z,6.90
2023-04-05T05:28:50.311Z,7.00
2023-04-05T05:31:18.358Z,7.00
2023-04-05T05:33:47.783Z,7.10
2023-04-05T05:36:14.670Z,7.10
2023-04-05T05:38:43.675Z,7.20
2023-04-05T05:41:10.686Z,7.20
2023-04-05T05:43:37.727Z,7.30
2023-04-05T05:46:04.699Z,7.30
2023-04-05T05:48:31.662Z,7.40
2023-04-05T05:51:01.749Z,7.50
2023-04-05T05:53:29.318Z,7.50
2023-04-05T05:55:56.623Z,7.60
2023-04-05T05:58:23.679Z,7.70
2023-04-05T06:00:51.204Z,7.70
2023-04-05T06:03:19.282Z,7.80
2023-04-05T06:06:12.946Z,7.80
2023-04-05T06:08:40.052Z,7.90
2023-04-05T06:11:06.889Z,8.00
2023-04-05T06:13:34.104Z,8.10
2023-04-05T06:16:02.357Z,8.20
2023-04-05T06:18:29.399Z,8.20
2023-04-05T06:20:56.351Z,8.30
2023-04-05T06:23:23.273Z,8.40
2023-04-05T06:25:50.162Z,8.50
2023-04-05T06:28:17.135Z,8.50
2023-04-05T06:30:44.941Z,8.60
2023-04-05T06:33:11.940Z,8.70
2023-04-05T06:35:39.011Z,8.70
2023-04-05T06:38:06.229Z,8.80
2023-04-05T06:40:33.279Z,8.90
2023-04-05T06:43:00.495Z,9.00
2023-04-05T06:45:31.509Z,9.00
2023-04-05T06:47:58.475Z,9.10
2023-04-05T06:50:25.650Z,9.20
2023-04-05T06:52:52.752Z,9.30
2023-04-05T06:55:19.678Z,9.40
2023-04-05T06:57:46.791Z,9.50
2023-04-05T07:00:17.360Z,9.60
2023-04-05T07:02:44.469Z,9.70
2023-04-05T07:05:11.731Z,9.80
2023-04-05T07:07:44.275Z,10.00
2023-04-05T07:10:11.513Z,10.10
2023-04-05T07:12:40.508Z,10.20
2023-04-05T07:15:08.336Z,10.30
2023-04-05T07:17:35.508Z,10.40
2023-04-05T07:20:06.334Z,10.60
2023-04-05T07:22:35.320Z,10.70
2023-04-05T07:25:02.557Z,10.90
2023-04-05T07:27:32.681Z,11.00
2023-04-05T07:29:59.659Z,11.20
2023-04-05T07:32:26.789Z,11.40
2023-04-05T07:34:54.382Z,11.50
2023-04-05T07:37:21.296Z,11.70
2023-04-05T07:39:48.318Z,11.90
2023-04-05T07:42:15.604Z,12.10
2023-04-05T07:44:42.531Z,12.30
2023-04-05T07:47:09.790Z,12.50
2023-04-05T07:49:37.939Z,12.70
2023-04-05T07:52:06.175Z,12.80
2023-04-05T07:54:33.570Z,13.00
2023-04-05T07:57:01.187Z,13.20
2023-04-05T07:59:28.504Z,13.50
2023-04-05T08:01:59.183Z,13.80
2023-04-05T08:04:31.744Z,14.30
2023-04-05T08:06:58.657Z,14.60
2023-04-05T08:09:25.957Z,15.00
2023-04-05T08:11:52.967Z,15.30
2023-04-05T08:14:19.909Z,15.60
2023-04-05T08:16:46.866Z,16.00
2023-04-05T08:19:15.569Z,16.40
2023-04-05T08:21:42.736Z,16.80
2023-04-05T08:24:09.813Z,17.20
2023-04-05T08:26:36.866Z,17.40
2023-04-05T08:29:04.119Z,18.00
2023-04-05T08:31:31.189Z,18.20
2023-04-05T08:33:58.379Z,18.60
2023-04-05T08:36:26.179Z,18.80
2023-04-05T08:38:53.210Z,19.10
2023-04-05T08:41:23.849Z,19.20
2023-04-05T08:43:58.043Z,19.40
2023-04-05T08:46:26.461Z,19.60
2023-04-05T08:48:53.721Z,19.70
2023-04-05T08:51:22.112Z,20.40
2023-04-05T08:53:49.723Z,20.30
2023-04-05T08:56:22.221Z,20.70
2023-04-05T08:59:08.639Z,20.90
2023-04-05T09:01:39.955Z,21.30
2023-04-05T09:04:24.282Z,21.60
2023-04-05T09:06:52.846Z,22.00
2023-04-05T09:09:21.572Z,22.40
2023-04-05T09:11:48.985Z,22.80
2023-04-05T09:14:17.846Z,22.90
2023-04-05T09:16:45.407Z,23.30
2023-04-05T09:19:12.467Z,23.20
2023-04-05T09:21:59.953Z,23.40
2023-04-05T09:24:39.320Z,23.30
2023-04-05T09:27:11.640Z,23.30
2023-04-05T09:29:41.449Z,23.10
2023-04-05T09:32:11.277Z,23.20
2023-04-05T09:34:39.648Z,23.30
2023-04-05T09:37:16.618Z,23.50
2023-04-05T09:39:44.986Z,23.90
2023-04-05T09:42:17.541Z,24.00
2023-04-05T09:45:02.435Z,24.10
2023-04-05T09:47:37.001Z,24.20
2023-04-05T09:50:16.414Z,24.00
2023-04-05T09:52:44.878Z,24.30
2023-04-05T09:55:13.699Z,24.70
2023-04-05T09:57:43.766Z,25.00
2023-04-05T10:00:22.609Z,25.20
2023-04-05T10:02:54.725Z,25.80
2023-04-05T10:05:26.849Z,26.10
2023-04-05T10:07:55.594Z,26.40
2023-04-05T10:10:23.746Z,26.70
2023-04-05T10:12:51.510Z,26.90
2023-04-05T10:15:19.166Z,27.20
2023-04-05T10:17:55.531Z,27.60
2023-04-05T10:20:24.733Z,27.90
2023-04-05T10:23:13.930Z,28.20
2023-04-05T10:25:53.635Z,28.50
2023-04-05T10:28:34.469Z,28.90
2023-04-05T10:31:39.060Z,29.10
2023-04-05T10:34:09.335Z,29.20
2023-04-05T10:37:00.643Z,29.10
2023-04-05T10:39:47.438Z,28.80
2023-04-05T10:42:22.331Z,28.50
2023-04-05T10:45:00.857Z,28.10
2023-04-05T10:47:32.351Z,27.80
2023-04-05T10:50:04.028Z,27.50
2023-04-05T10:52:33.063Z,27.20
2023-04-05T10:55:03.357Z,26.90
2023-04-05T10:57:31.817Z,26.40
2023-04-05T11:00:00.496Z,26.10
2023-04-05T11:02:30.165Z,25.80
2023-04-05T11:04:57.711Z,25.30
2023-04-05T11:07:24.799Z,25.00
2023-04-05T11:09:52.706Z,24.50
2023-04-05T11:12:19.833Z,24.20
2023-04-05T11:14:46.732Z,23.90
2023-04-05T11:17:28.853Z,23.50
2023-04-05T11:20:06.487Z,23.00
2023-04-05T11:22:33.362Z,22.60
2023-04-05T11:25:03.277Z,22.30
2023-04-05T11:27:37.415Z,21.90
2023-04-05T11:30:06.484Z,21.50
2023-04-05T11:32:41.745Z,21.20
2023-04-05T11:35:25.602Z,20.90
2023-04-05T11:38:01.543Z,20.70
2023-04-05T11:40:43.365Z,20.50
2023-04-05T11:43:12.338Z,20.40
2023-04-05T11:45:43.965Z,20.50
2023-04-05T11:48:14.189Z,20.70
2023-04-05T11:50:42.422Z,20.90
2023-04-05T11:53:14.222Z,21.30
2023-04-05T11:55:45.514Z,21.50
2023-04-05T11:58:23.308Z,21.90
2023-04-05T12:01:02.516Z,22.20
2023-04-05T12:03:30.660Z,22.40
2023-04-05T12:06:06.321Z,22.50
2023-04-05T12:08:50.449Z,22.40
2023-04-05T12:11:28.365Z,22.30
2023-04-05T12:13:58.633Z,22.20
2023-04-05T12:16:25.865Z,21.80
2023-04-05T12:18:58.695Z,21.50
2023-04-05T12:21:27.467Z,21.20
2023-04-05T12:23:54.429Z,20.90
2023-04-05T12:26:22.485Z,20.50
2023-04-05T12:29:03.670Z,20.30
2023-04-05T12:31:45.056Z,20.00
2023-04-05T12:34:14.546Z,19.70
2023-04-05T12:36:46.325Z,19.50
2023-04-05T12:39:13.352Z,19.40
2023-04-05T12:41:41.518Z,19.30
2023-04-05T12:44:30.598Z,19.40
2023-04-05T12:47:05.225Z,19.60
2023-04-05T12:49:38.671Z,19.50
2023-04-05T12:52:05.816Z,19.70
2023-04-05T12:54:34.525Z,19.80
2023-04-05T12:57:08.700Z,20.00
2023-04-05T12:59:35.914Z,20.10
2023-04-05T13:02:03.073Z,20.30
2023-04-05T13:04:30.116Z,20.50
2023-04-05T13:06:56.980Z,20.40
2023-04-05T13:09:23.972Z,20.80
2023-04-05T13:11:51.539Z,20.60
2023-04-05T13:14:18.568Z,20.60
2023-04-05T13:16:45.571Z,20.60
2023-04-05T13:19:12.621Z,20.80
2023-04-05T13:21:39.482Z,20.50
2023-04-05T13:24:06.482Z,20.50
2023-04-05T13:26:33.369Z,20.40
2023-04-05T13:29:00.514Z,20.30
2023-04-05T13:31:27.662Z,20.30
2023-04-05T13:33:54.896Z,20.50
2023-04-05T13:36:21.937Z,20.40
2023-04-05T13:38:48.904Z,20.40
2023-04-05T13:41:16.152Z,20.50
2023-04-05T13:43:43.192Z,20.50
2023-04-05T13:46:10.216Z,20.30
2023-04-05T13:48:38.622Z,20.50
2023-04-05T13:51:05.746Z,20.40
2023-04-05T13:53:32.672Z,20.30
2023-04-05T13:55:59.604Z,20.20
2023-04-05T13:58:26.507Z,19.90
2023-04-05T14:00:53.509Z,19.90
2023-04-05T14:03:20.800Z,19.70
2023-04-05T14:05:50.266Z,19.70
2023-04-05T14:08:18.703Z,19.70
2023-04-05T14:10:45.858Z,20.00
2023-04-05T14:13:16.276Z,20.40
2023-04-05T14:15:43.849Z,21.20
2023-04-05T14:18:11.278Z,21.70
2023-04-05T14:20:38.742Z,22.50
2023-04-05T14:23:05.865Z,23.20
2023-04-05T14:25:32.946Z,24.00
2023-04-05T14:27:59.950Z,24.60
2023-04-05T14:30:27.065Z,25.30
2023-04-05T14:32:54.005Z,25.90
2023-04-05T14:35:21.176Z,26.30
2023-04-05T14:37:48.145Z,26.60
2023-04-05T14:40:15.557Z,26.80
2023-04-05T14:42:49.298Z,27.00
2023-04-05T14:45:18.058Z,27.30
2023-04-05T14:47:45.275Z,27.60
2023-04-05T14:50:12.435Z,27.90
2023-04-05T14:52:39.959Z,28.20
2023-04-05T14:55:07.436Z,28.40
2023-04-05T14:57:34.420Z,28.50
2023-04-05T15:00:01.450Z,28.30
2023-04-05T15:02:28.871Z,28.10
2023-04-05T15:05:00.182Z,27.80
2023-04-05T15:07:27.963Z,27.40
2023-04-05T15:09:54.998Z,27.10
2023-04-05T15:12:22.089Z,26.70
2023-04-05T15:14:50.720Z,26.30
2023-04-05T15:17:17.911Z,25.90
2023-04-05T15:19:45.181Z,25.40
2023-04-05T15:22:12.635Z,24.90
2023-04-05T15:24:41.682Z,24.40
2023-04-05T15:27:10.558Z,23.90
2023-04-05T15:29:37.920Z,23.40
2023-04-05T15:32:05.359Z,22.90
2023-04-05T15:34:32.727Z,22.40
2023-04-05T15:36:59.815Z,22.00
2023-04-05T15:39:27.009Z,21.50
2023-04-05T15:41:56.503Z,21.10
2023-04-05T15:44:23.641Z,20.70
2023-04-05T15:46:50.650Z,20.40
2023-04-05T15:49:17.822Z,20.00
2023-04-05T15:51:45.048Z,19.60
2023-04-05T15:54:18.342Z,19.50
2023-04-05T15:56:45.524Z,19.00
2023-04-05T15:59:12.796Z,18.70
2023-04-05T16:01:40.438Z,18.20
2023-04-05T16:04:07.586Z,18.00
2023-04-05T16:06:34.662Z,17.70
2023-04-05T16:09:01.892Z,17.40
2023-04-05T16:11:29.169Z,17.30
2023-04-05T16:13:57.000Z,17.00
2023-04-05T16:16:35.147Z,16.60
2023-04-05T16:19:10.388Z,16.30
2023-04-05T16:21:37.465Z,16.10
2023-04-05T16:24:05.471Z,16.00
2023-04-05T16:26:32.446Z,15.70
2023-04-05T16:28:59.885Z,15.70
2023-04-05T16:31:27.368Z,15.40
2023-04-05T16:33:54.640Z,15.30
2023-04-05T16:36:22.138Z,15.10
2023-04-05T16:38:49.302Z,15.10
2023-04-05T16:41:16.345Z,15.00
2023-04-05T16:43:43.869Z,15.00
2023-04-05T16:46:11.144Z,14.90
2023-04-05T16:48:38.318Z,14.80
2023-04-05T16:51:06.967Z,14.80
2023-04-05T16:53:34.260Z,14.70
2023-04-05T16:56:01.317Z,14.70
2023-04-05T16:58:28.451Z,14.80
2023-04-05T17:00:58.936Z,14.50
2023-04-05T17:03:26.481Z,14.50
2023-04-05T17:05:53.628Z,14.20
2023-04-05T17:08:20.647Z,14.10
2023-04-05T17:10:47.745Z,14.00
2023-04-05T17:13:14.896Z,13.90
2023-04-05T17:15:42.221Z,13.70
2023-04-05T17:18:09.356Z,13.60
2023-04-05T17:20:36.796Z,13.50
2023-04-05T17:23:03.748Z,13.30
2023-04-05T17:25:31.376Z,13.20
2023-04-05T17:27:58.496Z,13.00
2023-04-05T17:30:26.214Z,12.90
2023-04-05T17:32:53.456Z,12.80
2023-04-05T17:35:20.671Z,12.60
2023-04-05T17:37:47.908Z,12.50
2023-04-05T17:40:16.249Z,12.40
2023-04-05T17:42:43.392Z,12.20
2023-04-05T17:45:11.324Z,12.10
2023-04-05T17:47:38.544Z,12.00
2023-04-05T17:50:06.285Z,11.90
2023-04-05T17:52:33.486Z,11.80
2023-04-05T17:55:00.564Z,11.60
2023-04-05T17:57:27.523Z,11.50
2023-04-05T17:59:54.693Z,11.50
2023-04-05T18:02:21.804Z,11.40
2023-04-05T18:04:49.016Z,11.60
2023-04-05T18:07:16.137Z,11.30
2023-04-05T18:09:43.208Z,11.20
2023-04-05T18:12:10.646Z,11.10
2023-04-05T18:14:37.602Z,11.10
2023-04-05T18:17:07.403Z,11.00
2023-04-05T18:19:34.807Z,11.00
2023-04-05T18:22:01.838Z,10.90
2023-04-05T18:24:29.305Z,10.90
2023-04-05T18:26:57.318Z,10.90
2023-04-05T18:29:28.556Z,10.80
2023-04-05T18:31:56.806Z,10.80
2023-04-05T18:34:24.519Z,10.80
2023-04-05T18:36:51.721Z,10.70
2023-04-05T18:39:20.031Z,10.80
2023-04-05T18:41:47.461Z,10.70
2023-04-05T18:44:14.579Z,10.70
2023-04-05T18:46:41.852Z,10.70
2023-04-05T18:49:09.011Z,10.80
2023-04-05T18:51:36.404Z,10.60
2023-04-05T18:54:03.998Z,10.70
2023-04-05T18:56:31.323Z,10.60
2023-04-05T18:58:58.708Z,10.60
2023-04-05T19:01:25.970Z,10.60
2023-04-05T19:03:52.965Z,10.50
2023-04-05T19:06:19.940Z,10.80
2023-04-05T19:08:47.998Z,10.50
2023-04-05T19:11:17.201Z,10.50
2023-04-05T19:13:44.865Z,10.50
2023-04-05T19:16:11.828Z,10.50
2023-04-05T19:18:39.161Z,10.50
2023-04-05T19:21:08.445Z,10.50
2023-04-05T19:23:35.436Z,10.40
2023-04-05T19:26:02.692Z,10.40
2023-04-05T19:28:29.546Z,10.40
2023-04-05T19:30:57.410Z,10.40
2023-04-05T19:33:24.486Z,10.30
2023-04-05T19:35:52.000Z,10.50
2023-04-05T19:38:22.181Z,10.30
2023-04-05T19:40:49.661Z,10.20
2023-04-05T19:43:17.871Z,10.20
2023-04-05T19:45:44.788Z,10.10
2023-04-05T19:48:37.700Z,10.10
2023-04-05T19:51:07.348Z,10.20
2023-04-05T19:53:48.461Z,10.00
2023-04-05T19:56:22.795Z,10.00
2023-04-05T19:59:03.154Z,10.10
2023-04-05T20:01:39.168Z,9.90
2023-04-05T20:04:16.078Z,9.90
2023-04-05T20:06:53.203Z,9.90
2023-04-05T20:09:22.712Z,9.90
2023-04-05T20:12:02.508Z,9.80
2023-04-05T20:14:41.074Z,9.80
2023-04-05T20:17:09.282Z,10.00
2023-04-05T20:19:41.486Z,9.70
2023-04-05T20:22:09.457Z,9.70
2023-04-05T20:24:39.987Z,9.60
2023-04-05T20:27:07.088Z,9.60
2023-04-05T20:29:35.936Z,9.60
2023-04-05T20:32:05.094Z,9.50
2023-04-05T20:34:35.428Z,9.50
2023-04-05T20:37:07.103Z,9.40
2023-04-05T20:39:35.328Z,9.40
2023-04-05T20:42:03.682Z,9.50
2023-04-05T20:44:31.384Z,9.30
2023-04-05T20:46:58.569Z,9.30
2023-04-05T20:49:29.022Z,9.30
2023-04-05T20:51:57.341Z,9.30
2023-04-05T20:54:24.607Z,9.30
2023-04-05T20:56:51.770Z,9.30
2023-04-05T20:59:18.970Z,9.30
2023-04-05T21:01:47.172Z,9.30
2023-04-05T21:04:14.757Z,9.30
2023-04-05T21:06:42.350Z,9.50
2023-04-05T21:09:09.966Z,9.30
2023-04-05T21:11:37.370Z,9.30
2023-04-05T21:14:04.807Z,9.30
2023-04-05T21:16:31.928Z,9.30
2023-04-05T21:18:58.833Z,9.30
2023-04-05T21:21:26.121Z,9.30
2023-04-05T21:23:53.534Z,9.20
2023-04-05T21:26:21.525Z,9.40
2023-04-05T21:28:49.344Z,9.20
2023-04-05T21:31:16.402Z,9.20
2023-04-05T21:33:43.563Z,9.10
2023-04-05T21:36:10.737Z,9.10
2023-04-05T21:38:37.785Z,9.00
2023-04-05T21:41:04.959Z,9.00
2023-04-05T21:43:31.863Z,8.90
2023-04-05T21:45:58.944Z,8.90
2023-04-05T21:48:27.789Z,8.90
2023-04-05T21:50:54.998Z,8.80
2023-04-05T21:53:24.076Z,8.80
2023-04-05T21:55:51.036Z,8.80
2023-04-05T21:58:17.944Z,8.80
2023-04-05T22:00:44.824Z,8.80
2023-04-05T22:03:11.952Z,8.80
2023-04-05T22:05:39.310Z,8.80
2023-04-05T22:08:07.201Z,8.70
2023-04-05T22:10:35.459Z,8.70
2023-04-05T22:13:02.495Z,8.70
2023-04-05T22:15:29.960Z,8.60
2023-04-05T22:17:57.032Z,8.70
2023-04-05T22:20:24.266Z,8.70
2023-04-05T22:22:51.906Z,8.70
2023-04-05T22:25:18.965Z,8.80
2023-04-05T22:27:46.218Z,8.70
2023-04-05T22:30:13.925Z,8.70
2023-04-05T22:32:41.226Z,8.70
2023-04-05T22:35:08.935Z,8.70
2023-04-05T22:37:37.906Z,8.70
2023-04-05T22:40:06.116Z,8.60
2023-04-05T22:42:33.189Z,8.60
2023-04-05T22:45:02.439Z,8.60
2023-04-05T22:47:29.810Z,8.80
2023-04-05T22:49:57.180Z,8.60
2023-04-05T22:52:24.234Z,8.60
2023-04-05T22:54:51.529Z,8.60
2023-04-05T22:57:18.492Z,8.50
2023-04-05T22:59:45.551Z,8.50
2023-04-05T23:02:12.805Z,8.50
2023-04-05T23:04:39.960Z,8.50
2023-04-05T23:07:06.880Z,8.50
2023-04-05T23:09:34.163Z,8.40
2023-04-05T23:12:01.440Z,8.40
2023-04-05T23:14:28.421Z,8.40
2023-04-05T23:16:55.527Z,8.40
2023-04-05T23:19:22.717Z,8.40
2023-04-05T23:21:49.658Z,8.30
2023-04-05T23:24:16.777Z,8.30
2023-04-05T23:26:43.771Z,8.30
2023-04-05T23:29:10.822Z,8.20
2023-04-05T23:31:38.450Z,8.40
2023-04-05T23:34:06.257Z,8.20
2023-04-05T23:36:33.353Z,8.20
2023-04-05T23:39:00.947Z,8.30
2023-04-05T23:41:28.302Z,8.20
2023-04-05T23:43:55.357Z,8.10
2023-04-05T23:46:22.828Z,8.10
2023-04-05T23:48:50.849Z,8.10
2023-04-05T23:51:18.244Z,8.10
2023-04-05T23:53:45.343Z,8.10
2023-04-05T23:56:12.636Z,8.10
2023-04-05T23:58:41.995Z,8.00
